createdAt,value
2023-03-15T00:01:46.750Z,5.00
2023-03-15T00:04:16.636Z,8.50
2023-03-15T00:06:43.412Z,7.83
2023-03-15T00:09:10.073Z,12.80
2023-03-15T00:11:36.734Z,7.00
2023-03-15T00:14:03.634Z,3.63
2023-03-15T00:16:32.829Z,6.23
2023-03-15T00:18:59.661Z,9.73
2023-03-15T00:21:26.538Z,15.67
2023-03-15T00:23:53.177Z,11.03
2023-03-15T00:26:19.823Z,5.07
2023-03-15T00:28:46.450Z,6.60
2023-03-15T00:31:15.042Z,2.50
2023-03-15T00:33:42.149Z,4.50
2023-03-15T00:36:09.780Z,7.07
2023-03-15T00:38:38.274Z,3.33
2023-03-15T00:41:13.352Z,5.23
2023-03-15T00:43:40.509Z,4.93
2023-03-15T00:46:08.273Z,5.07
2023-03-15T00:48:35.601Z,3.63
2023-03-15T00:51:09.658Z,5.60
2023-03-15T00:53:37.928Z,6.10
2023-03-15T00:56:19.374Z,4.20
2023-03-15T00:58:46.160Z,2.77
2023-03-15T01:01:23.655Z,3.90
2023-03-15T01:03:51.208Z,2.80
2023-03-15T01:06:21.188Z,4.50
2023-03-15T01:08:48.538Z,5.00
2023-03-15T01:11:22.317Z,8.13
2023-03-15T01:13:48.948Z,9.73
2023-03-15T01:16:15.840Z,8.03
2023-03-15T01:18:42.667Z,8.70
2023-03-15T01:21:11.824Z,11.60
2023-03-15T01:23:38.925Z,7.80
2023-03-15T01:26:07.985Z,7.37
2023-03-15T01:28:34.687Z,6.90
2023-03-15T01:31:01.480Z,11.83
2023-03-15T01:33:28.943Z,5.10
2023-03-15T01:36:04.423Z,4.47
2023-03-15T01:38:31.160Z,10.57
2023-03-15T01:40:58.080Z,3.07
2023-03-15T01:43:27.233Z,6.07
2023-03-15T01:46:01.706Z,6.17
2023-03-15T01:48:35.630Z,7.83
2023-03-15T01:51:08.513Z,4.43
2023-03-15T01:53:36.841Z,5.40
2023-03-15T01:56:05.001Z,12.90
2023-03-15T01:58:35.495Z,4.17
2023-03-15T02:01:03.605Z,4.43
2023-03-15T02:03:36.265Z,4.77
2023-03-15T02:06:07.936Z,5.17
2023-03-15T02:08:42.366Z,5.77
2023-03-15T02:11:09.238Z,7.00
2023-03-15T02:13:36.426Z,9.03
2023-03-15T02:16:06.802Z,4.47
2023-03-15T02:18:36.319Z,5.63
2023-03-15T02:21:52.598Z,2.50
2023-03-15T02:25:08.920Z,9.80
2023-03-15T02:27:37.016Z,7.50
2023-03-15T02:30:05.180Z,5.13
2023-03-15T02:32:32.249Z,4.57
2023-03-15T02:34:59.284Z,9.40
2023-03-15T02:37:26.020Z,8.10
2023-03-15T02:39:52.737Z,7.03
2023-03-15T02:42:20.691Z,5.23
2023-03-15T02:44:49.110Z,1.80
2023-03-15T02:47:27.672Z,5.20
2023-03-15T02:49:54.668Z,5.60
2023-03-15T02:52:22.792Z,7.63
2023-03-15T02:54:50.150Z,2.27
2023-03-15T02:57:18.443Z,10.33
2023-03-15T02:59:45.325Z,1.37
2023-03-15T03:02:12.629Z,2.90
2023-03-15T03:04:39.776Z,9.67
2023-03-15T03:07:06.428Z,3.33
2023-03-15T03:09:33.219Z,4.00
2023-03-15T03:11:59.873Z,4.03
2023-03-15T03:14:26.595Z,6.10
2023-03-15T03:16:57.404Z,5.37
2023-03-15T03:19:25.746Z,2.57
2023-03-15T03:21:53.569Z,2.67
2023-03-15T03:24:21.180Z,5.57
2023-03-15T03:26:47.876Z,4.10
2023-03-15T03:29:18.035Z,4.13
2023-03-15T03:31:45.232Z,6.23
2023-03-15T03:34:15.520Z,5.60
2023-03-15T03:36:45.356Z,6.33
2023-03-15T03:39:12.110Z,4.10
2023-03-15T03:41:38.797Z,4.60
2023-03-15T03:44:05.468Z,6.33
2023-03-15T03:46:32.290Z,6.33
2023-03-15T03:48:59.049Z,2.70
2023-03-15T03:51:25.873Z,7.33
2023-03-15T03:53:52.530Z,5.10
2023-03-15T03:56:19.398Z,2.97
2023-03-15T03:58:46.075Z,3.63
2023-03-15T04:01:12.751Z,3.87
2023-03-15T04:03:39.380Z,8.17
2023-03-15T04:06:06.095Z,4.83
2023-03-15T04:08:35.044Z,7.57
2023-03-15T04:11:04.177Z,1.17
2023-03-15T04:13:31.369Z,3.93
2023-03-15T04:15:58.219Z,3.40
2023-03-15T04:18:25.095Z,6.17
2023-03-15T04:20:54.657Z,5.77
2023-03-15T04:23:23.549Z,5.33
2023-03-15T04:25:55.330Z,6.90
2023-03-15T04:28:22.917Z,6.53
2023-03-15T04:30:51.165Z,10.80
2023-03-15T04:33:17.870Z,11.23
2023-03-15T04:35:44.632Z,5.70
2023-03-15T04:38:11.496Z,9.17
2023-03-15T04:40:38.303Z,3.57
2023-03-15T04:43:05.771Z,2.80
2023-03-15T04:45:32.903Z,7.17
2023-03-15T04:48:01.620Z,8.20
2023-03-15T04:50:30.393Z,5.97
2023-03-15T04:52:59.648Z,8.20
2023-03-15T04:55:26.682Z,5.20
2023-03-15T04:57:53.731Z,9.17
2023-03-15T05:00:21.728Z,4.90
2023-03-15T05:02:54.735Z,4.40
2023-03-15T05:05:23.792Z,6.70
2023-03-15T05:07:51.223Z,6.83
2023-03-15T05:10:18.183Z,6.10
2023-03-15T05:12:44.924Z,4.53
2023-03-15T05:15:12.266Z,4.27
2023-03-15T05:17:39.002Z,7.70
2023-03-15T05:20:13.512Z,3.30
2023-03-15T05:22:41.029Z,5.03
2023-03-15T05:25:09.100Z,11.73
2023-03-15T05:27:36.443Z,6.60
2023-03-15T05:30:04.943Z,5.83
2023-03-15T05:32:34.632Z,8.23
2023-03-15T05:35:01.993Z,9.20
2023-03-15T05:37:28.953Z,6.47
2023-03-15T05:39:56.008Z,6.53
2023-03-15T05:42:26.194Z,6.47
2023-03-15T05:44:57.105Z,5.00
2023-03-15T05:47:24.001Z,8.23
2023-03-15T05:49:50.916Z,6.90
2023-03-15T05:52:17.613Z,3.30
2023-03-15T05:54:44.535Z,7.37
2023-03-15T05:57:11.598Z,4.87
2023-03-15T05:59:38.342Z,5.73
2023-03-15T06:02:05.070Z,8.37
2023-03-15T06:04:31.934Z,5.70
2023-03-15T06:06:58.642Z,6.10
2023-03-15T06:09:25.367Z,3.33
2023-03-15T06:11:52.486Z,7.13
2023-03-15T06:14:19.287Z,6.43
2023-03-15T06:16:46.047Z,2.73
2023-03-15T06:19:12.871Z,11.13
2023-03-15T06:21:39.531Z,8.67
2023-03-15T06:24:06.744Z,9.47
2023-03-15T06:26:33.409Z,7.17
2023-03-15T06:29:00.197Z,6.20
2023-03-15T06:31:26.849Z,8.43
2023-03-15T06:33:53.469Z,5.93
2023-03-15T06:36:20.223Z,5.57
2023-03-15T06:38:46.991Z,11.90
2023-03-15T06:41:15.651Z,10.67
2023-03-15T06:43:42.674Z,6.83
2023-03-15T06:46:09.487Z,6.17
2023-03-15T06:48:36.278Z,6.03
2023-03-15T06:51:05.844Z,7.50
2023-03-15T06:53:32.661Z,3.83
2023-03-15T06:55:59.338Z,7.83
2023-03-15T06:58:26.065Z,5.40
2023-03-15T07:00:52.758Z,11.83
2023-03-15T07:03:21.494Z,8.83
2023-03-15T07:05:52.440Z,7.50
2023-03-15T07:08:19.974Z,3.67
2023-03-15T07:10:46.767Z,6.60
2023-03-15T07:13:13.537Z,4.17
2023-03-15T07:15:40.619Z,8.57
2023-03-15T07:18:07.420Z,8.67
2023-03-15T07:20:37.377Z,5.93
2023-03-15T07:23:04.448Z,9.23
2023-03-15T07:25:31.111Z,8.77
2023-03-15T07:27:57.765Z,4.83
2023-03-15T07:30:24.846Z,7.00
2023-03-15T07:32:51.606Z,8.03
2023-03-15T07:35:18.378Z,6.23
2023-03-15T07:37:45.426Z,8.00
2023-03-15T07:40:12.727Z,3.40
2023-03-15T07:42:43.015Z,8.77
2023-03-15T07:45:10.442Z,6.10
2023-03-15T07:47:37.706Z,6.57
2023-03-15T07:50:06.735Z,10.13
2023-03-15T07:52:33.446Z,10.00
2023-03-15T07:55:00.216Z,8.30
2023-03-15T07:57:28.880Z,6.03
2023-03-15T07:59:56.181Z,5.47
2023-03-15T08:02:26.221Z,7.57
2023-03-15T08:04:53.301Z,6.80
2023-03-15T08:07:19.986Z,5.23
2023-03-15T08:09:46.748Z,9.80
2023-03-15T08:12:13.737Z,7.70
2023-03-15T08:14:40.381Z,5.97
2023-03-15T08:17:07.272Z,4.27
2023-03-15T08:19:33.923Z,3.50
2023-03-15T08:22:00.674Z,4.07
2023-03-15T08:24:27.525Z,4.27
2023-03-15T08:26:54.202Z,5.07
2023-03-15T08:29:21.000Z,6.47
2023-03-15T08:31:47.732Z,5.67
2023-03-15T08:34:15.302Z,6.73
2023-03-15T08:36:42.681Z,5.97
2023-03-15T08:39:09.421Z,6.70
2023-03-15T08:41:36.134Z,4.07
2023-03-15T08:44:02.833Z,7.50
2023-03-15T08:46:33.655Z,7.07
2023-03-15T08:49:00.527Z,6.87
2023-03-15T08:51:27.317Z,7.33
2023-03-15T08:53:54.045Z,7.17
2023-03-15T08:56:21.160Z,8.00
2023-03-15T08:58:48.397Z,10.03
2023-03-15T09:01:15.632Z,3.97
2023-03-15T09:03:42.657Z,5.20
2023-03-15T09:06:09.670Z,4.00
2023-03-15T09:08:36.818Z,6.33
2023-03-15T09:11:03.922Z,4.87
2023-03-15T09:13:30.858Z,4.60
2023-03-15T09:15:57.772Z,5.50
2023-03-15T09:18:24.537Z,3.60
2023-03-15T09:20:51.219Z,6.10
2023-03-15T09:23:17.930Z,6.33
2023-03-15T09:25:44.619Z,3.47
2023-03-15T09:28:11.902Z,7.50
2023-03-15T09:30:40.714Z,2.80
2023-03-15T09:33:07.888Z,5.90
2023-03-15T09:35:34.792Z,5.43
2023-03-15T09:38:01.697Z,3.83
2023-03-15T09:40:32.139Z,3.83
2023-03-15T09:43:30.823Z,5.30
2023-03-15T09:46:26.271Z,2.00
2023-03-15T09:49:12.649Z,6.00
2023-03-15T09:51:54.451Z,6.53
2023-03-15T09:54:29.363Z,4.37
2023-03-15T09:57:06.858Z,5.50
2023-03-15T09:59:39.883Z,4.53
2023-03-15T10:02:31.181Z,6.80
2023-03-15T10:05:03.974Z,6.83
2023-03-15T10:07:31.412Z,4.77
2023-03-15T10:09:59.060Z,3.10
2023-03-15T10:12:41.323Z,3.67
2023-03-15T10:15:36.348Z,2.70
2023-03-15T10:18:18.277Z,5.10
2023-03-15T10:20:53.644Z,1.40
2023-03-15T10:23:28.828Z,3.90
2023-03-15T10:25:56.012Z,2.50
2023-03-15T10:28:30.608Z,3.03
2023-03-15T10:31:01.316Z,1.40
2023-03-15T10:33:34.611Z,1.60
2023-03-15T10:36:11.610Z,2.00
2023-03-15T10:38:38.786Z,2.60
2023-03-15T10:41:06.613Z,2.93
2023-03-15T10:43:37.118Z,4.70
2023-03-15T10:46:06.989Z,1.03
2023-03-15T10:48:40.334Z,3.87
2023-03-15T10:51:21.480Z,3.30
2023-03-15T10:54:12.496Z,2.27
2023-03-15T10:56:44.534Z,3.47
2023-03-15T10:59:20.819Z,5.33
2023-03-15T11:01:49.339Z,10.03
2023-03-15T11:04:19.874Z,5.47
2023-03-15T11:06:57.639Z,7.70
2023-03-15T11:09:26.546Z,6.80
2023-03-15T11:12:04.886Z,3.63
2023-03-15T11:14:44.372Z,3.77
2023-03-15T11:17:27.009Z,3.77
2023-03-15T11:19:56.932Z,4.20
2023-03-15T11:22:24.050Z,5.70
2023-03-15T11:24:52.535Z,3.37
2023-03-15T11:27:22.280Z,4.97
2023-03-15T11:29:56.713Z,4.80
2023-03-15T11:32:26.268Z,6.13
2023-03-15T11:35:13.974Z,6.40
2023-03-15T11:37:49.847Z,4.77
2023-03-15T11:40:22.239Z,4.93
2023-03-15T11:42:57.922Z,10.80
2023-03-15T11:45:36.428Z,7.30
2023-03-15T11:48:29.388Z,5.37
2023-03-15T11:50:58.689Z,6.40
2023-03-15T11:54:02.723Z,7.50
2023-03-15T11:56:46.508Z,6.60
2023-03-15T11:59:36.677Z,3.93
2023-03-15T12:02:09.723Z,7.27
2023-03-15T12:04:36.376Z,2.10
2023-03-15T12:07:12.860Z,4.43
2023-03-15T12:09:47.376Z,3.13
2023-03-15T12:12:26.343Z,6.00
2023-03-15T12:15:19.070Z,4.57
2023-03-15T12:17:51.725Z,6.73
2023-03-15T12:20:37.831Z,5.83
2023-03-15T12:23:19.833Z,7.93
2023-03-15T12:26:08.038Z,2.17
2023-03-15T12:28:37.981Z,3.47
2023-03-15T12:31:09.178Z,4.53
2023-03-15T12:33:54.999Z,7.33
2023-03-15T12:36:35.421Z,2.90
2023-03-15T12:39:36.942Z,2.23
2023-03-15T12:42:05.006Z,2.33
2023-03-15T12:44:31.840Z,6.43
2023-03-15T12:47:18.888Z,10.20
2023-03-15T12:49:46.586Z,10.43
2023-03-15T12:52:16.040Z,6.10
2023-03-15T12:54:55.282Z,9.20
2023-03-15T12:57:30.135Z,6.73
2023-03-15T13:00:12.923Z,7.33
2023-03-15T13:02:49.960Z,7.03
2023-03-15T13:05:35.504Z,4.77
2023-03-15T13:08:45.201Z,4.80
2023-03-15T13:11:27.408Z,6.73
2023-03-15T13:13:53.998Z,11.00
2023-03-15T13:16:30.217Z,9.93
2023-03-15T13:19:14.837Z,5.57
2023-03-15T13:22:04.627Z,4.23
2023-03-15T13:24:42.847Z,7.90
2023-03-15T13:27:13.650Z,3.07
2023-03-15T13:29:40.596Z,5.00
2023-03-15T13:32:19.652Z,7.87
2023-03-15T13:34:47.329Z,9.10
2023-03-15T13:37:31.042Z,12.07
2023-03-15T13:40:02.011Z,13.60
2023-03-15T13:42:29.320Z,10.07
2023-03-15T13:45:16.273Z,8.73
2023-03-15T13:47:44.793Z,12.13
2023-03-15T13:50:20.659Z,9.50
2023-03-15T13:52:48.712Z,13.30
2023-03-15T13:55:23.448Z,8.23
2023-03-15T13:57:57.305Z,7.53
2023-03-15T14:00:25.155Z,13.10
2023-03-15T14:02:56.164Z,6.30
2023-03-15T14:05:30.985Z,6.93
2023-03-15T14:08:05.828Z,11.97
2023-03-15T14:10:37.940Z,7.27
2023-03-15T14:13:32.198Z,13.33
2023-03-15T14:16:07.651Z,9.27
2023-03-15T14:18:39.828Z,8.30
2023-03-15T14:21:18.217Z,8.47
2023-03-15T14:23:48.474Z,13.10
2023-03-15T14:26:26.955Z,14.90
2023-03-15T14:29:07.571Z,7.50
2023-03-15T14:31:46.409Z,6.47
2023-03-15T14:34:25.150Z,10.53
2023-03-15T14:36:55.612Z,9.07
2023-03-15T14:39:30.408Z,12.30
2023-03-15T14:41:57.331Z,11.13
2023-03-15T14:44:24.058Z,10.57
2023-03-15T14:46:51.074Z,11.03
2023-03-15T14:49:26.666Z,11.17
2023-03-15T14:52:02.587Z,19.43
2023-03-15T14:54:30.721Z,10.90
2023-03-15T14:56:57.504Z,9.97
2023-03-15T14:59:24.141Z,11.03
2023-03-15T15:01:55.099Z,10.63
2023-03-15T15:04:22.354Z,14.60
2023-03-15T15:06:53.026Z,14.30
2023-03-15T15:09:25.063Z,5.93
2023-03-15T15:11:52.968Z,8.37
2023-03-15T15:14:20.331Z,9.90
2023-03-15T15:16:47.239Z,8.70
2023-03-15T15:19:14.656Z,8.73
2023-03-15T15:21:42.748Z,7.00
2023-03-15T15:24:16.417Z,10.37
2023-03-15T15:26:43.840Z,8.77
2023-03-15T15:29:15.458Z,10.77
2023-03-15T15:31:42.789Z,13.43
2023-03-15T15:34:11.044Z,13.93
2023-03-15T15:36:43.371Z,18.93
2023-03-15T15:39:21.989Z,10.10
2023-03-15T15:41:49.386Z,6.83
2023-03-15T15:44:18.959Z,11.33
2023-03-15T15:46:45.744Z,9.57
2023-03-15T15:49:12.710Z,10.00
2023-03-15T15:51:49.515Z,9.60
2023-03-15T15:54:22.885Z,12.20
2023-03-15T15:56:52.959Z,14.17
2023-03-15T15:59:22.007Z,10.20
2023-03-15T16:02:00.658Z,9.57
2023-03-15T16:04:29.688Z,11.00
2023-03-15T16:06:59.417Z,7.90
2023-03-15T16:09:30.113Z,7.93
2023-03-15T16:11:57.581Z,7.17
2023-03-15T16:14:24.393Z,10.07
2023-03-15T16:16:52.123Z,12.73
2023-03-15T16:19:19.257Z,11.40
2023-03-15T16:21:51.139Z,12.00
2023-03-15T16:24:27.844Z,17.70
2023-03-15T16:27:04.556Z,7.30
2023-03-15T16:29:40.779Z,9.23
2023-03-15T16:32:17.687Z,8.53
2023-03-15T16:34:52.547Z,9.07
2023-03-15T16:37:29.469Z,8.00
2023-03-15T16:39:56.119Z,13.80
2023-03-15T16:42:26.135Z,11.77
2023-03-15T16:44:53.386Z,9.27
2023-03-15T16:47:20.883Z,10.70
2023-03-15T16:49:47.568Z,9.30
2023-03-15T16:52:16.150Z,8.53
2023-03-15T16:54:44.098Z,7.07
2023-03-15T16:57:22.745Z,9.90
2023-03-15T16:59:51.046Z,7.13
2023-03-15T17:02:20.322Z,8.80
2023-03-15T17:04:47.872Z,10.13
2023-03-15T17:07:15.835Z,9.63
2023-03-15T17:09:45.934Z,8.70
2023-03-15T17:12:22.819Z,5.50
2023-03-15T17:14:49.789Z,14.50
2023-03-15T17:17:16.495Z,12.37
2023-03-15T17:19:43.880Z,11.83
2023-03-15T17:22:11.917Z,9.53
2023-03-15T17:24:38.680Z,12.03
2023-03-15T17:27:05.553Z,8.70
2023-03-15T17:29:33.173Z,9.50
2023-03-15T17:32:00.034Z,11.77
2023-03-15T17:34:26.818Z,11.60
2023-03-15T17:36:53.676Z,16.00
2023-03-15T17:39:20.364Z,11.40
2023-03-15T17:41:47.937Z,6.90
2023-03-15T17:44:14.776Z,10.37
2023-03-15T17:46:42.918Z,16.73
2023-03-15T17:49:12.143Z,17.87
2023-03-15T17:51:39.145Z,12.17
2023-03-15T17:54:13.770Z,19.20
2023-03-15T17:56:40.614Z,14.60
2023-03-15T17:59:12.685Z,12.90
2023-03-15T18:01:43.924Z,12.20
2023-03-15T18:04:13.124Z,13.77
2023-03-15T18:06:40.463Z,11.90
2023-03-15T18:09:09.357Z,13.97
2023-03-15T18:11:36.615Z,13.30
2023-03-15T18:14:05.353Z,13.57
2023-03-15T18:16:32.482Z,14.37
2023-03-15T18:18:59.257Z,16.70
2023-03-15T18:21:27.475Z,17.50
2023-03-15T18:23:54.645Z,14.37
2023-03-15T18:26:22.829Z,11.70
2023-03-15T18:28:50.211Z,11.90
2023-03-15T18:31:21.898Z,14.37
2023-03-15T18:33:50.465Z,9.77
2023-03-15T18:36:17.642Z,18.67
2023-03-15T18:38:45.188Z,9.73
2023-03-15T18:41:13.267Z,12.60
2023-03-15T18:43:40.567Z,19.77
2023-03-15T18:46:07.414Z,15.03
2023-03-15T18:48:40.380Z,13.13
2023-03-15T18:51:10.304Z,12.53
2023-03-15T18:53:36.936Z,12.33
2023-03-15T18:56:04.997Z,16.63
2023-03-15T18:58:32.300Z,18.57
2023-03-15T19:00:59.174Z,15.63
2023-03-15T19:03:25.957Z,10.87
2023-03-15T19:05:53.582Z,12.23
2023-03-15T19:08:20.466Z,16.67
2023-03-15T19:10:49.550Z,19.13
2023-03-15T19:13:16.641Z,23.23
2023-03-15T19:15:44.196Z,13.47
2023-03-15T19:18:11.151Z,11.80
2023-03-15T19:20:38.027Z,17.17
2023-03-15T19:23:04.688Z,16.20
2023-03-15T19:25:32.372Z,11.23
2023-03-15T19:27:59.124Z,15.97
2023-03-15T19:30:26.417Z,8.20
2023-03-15T19:32:53.191Z,12.57
2023-03-15T19:35:21.393Z,13.63
2023-03-15T19:37:48.967Z,11.57
2023-03-15T19:40:17.462Z,10.70
2023-03-15T19:42:44.991Z,14.90
2023-03-15T19:45:12.140Z,19.67
2023-03-15T19:47:39.149Z,17.77
2023-03-15T19:50:07.326Z,11.13
2023-03-15T19:52:34.655Z,17.27
2023-03-15T19:55:01.350Z,12.73
2023-03-15T19:57:28.145Z,14.20
2023-03-15T19:59:54.861Z,18.77
2023-03-15T20:02:24.317Z,17.07
2023-03-15T20:04:51.137Z,12.50
2023-03-15T20:07:18.112Z,13.13
2023-03-15T20:09:45.181Z,17.67
2023-03-15T20:12:13.142Z,12.70
2023-03-15T20:14:39.886Z,20.33
2023-03-15T20:17:07.306Z,22.60
2023-03-15T20:19:34.173Z,9.60
2023-03-15T20:22:00.980Z,13.87
2023-03-15T20:24:27.624Z,9.50
2023-03-15T20:26:54.397Z,10.57
2023-03-15T20:29:22.462Z,18.27
2023-03-15T20:31:50.090Z,17.10
2023-03-15T20:34:17.425Z,13.37
2023-03-15T20:36:44.337Z,7.07
2023-03-15T20:39:11.041Z,8.17
2023-03-15T20:41:39.183Z,14.87
2023-03-15T20:44:06.051Z,22.80
2023-03-15T20:46:33.458Z,27.07
2023-03-15T20:49:00.477Z,20.70
2023-03-15T20:51:27.628Z,19.03
2023-03-15T20:53:54.373Z,15.00
2023-03-15T20:56:22.865Z,8.97
2023-03-15T20:58:49.794Z,16.10
2023-03-15T21:01:17.113Z,17.83
2023-03-15T21:03:47.219Z,11.23
2023-03-15T21:06:14.219Z,11.73
2023-03-15T21:08:42.419Z,19.20
2023-03-15T21:11:09.480Z,12.57
2023-03-15T21:13:36.262Z,15.33
2023-03-15T21:16:04.543Z,20.17
2023-03-15T21:18:32.808Z,24.37
2023-03-15T21:21:01.947Z,21.57
2023-03-15T21:23:32.930Z,35.43
2023-03-15T21:26:02.175Z,37.73
2023-03-15T21:28:29.743Z,30.40
2023-03-15T21:30:57.072Z,24.13
2023-03-15T21:33:30.250Z,22.97
2023-03-15T21:35:59.237Z,29.97
2023-03-15T21:38:31.491Z,17.57
2023-03-15T21:40:59.539Z,16.63
2023-03-15T21:43:28.212Z,12.23
2023-03-15T21:45:55.557Z,11.23
2023-03-15T21:48:23.089Z,15.10
2023-03-15T21:50:53.648Z,16.83
2023-03-15T21:53:21.542Z,6.77
2023-03-15T21:55:48.452Z,13.63
2023-03-15T21:58:15.491Z,13.53
2023-03-15T22:00:42.812Z,10.83
2023-03-15T22:03:09.717Z,12.27
2023-03-15T22:05:36.605Z,10.13
2023-03-15T22:08:03.327Z,17.47
2023-03-15T22:10:30.045Z,14.83
2023-03-15T22:12:56.772Z,4.87
2023-03-15T22:15:23.510Z,8.40
2023-03-15T22:17:51.090Z,7.23
2023-03-15T22:20:18.698Z,24.87
2023-03-15T22:22:46.830Z,7.03
2023-03-15T22:25:14.228Z,13.47
2023-03-15T22:27:41.859Z,9.27
2023-03-15T22:30:10.798Z,17.63
2023-03-15T22:32:37.566Z,9.70
2023-03-15T22:35:04.864Z,19.60
2023-03-15T22:37:34.044Z,8.27
2023-03-15T22:40:00.859Z,13.23
2023-03-15T22:42:27.686Z,13.43
2023-03-15T22:44:54.471Z,11.47
2023-03-15T22:47:21.193Z,13.70
2023-03-15T22:49:48.004Z,11.43
2023-03-15T22:52:14.849Z,15.13
2023-03-15T22:54:44.424Z,15.77
2023-03-15T22:57:11.424Z,9.53
2023-03-15T22:59:39.208Z,9.17
2023-03-15T23:02:05.941Z,10.87
2023-03-15T23:04:33.972Z,6.77
2023-03-15T23:07:01.774Z,13.47
2023-03-15T23:09:28.616Z,15.07
2023-03-15T23:11:55.372Z,7.43
2023-03-15T23:14:22.206Z,11.73
2023-03-15T23:16:49.328Z,7.67
2023-03-15T23:19:16.093Z,11.70
2023-03-15T23:21:42.762Z,10.80
2023-03-15T23:24:09.561Z,9.10
2023-03-15T23:26:37.437Z,6.17
2023-03-15T23:29:10.692Z,10.57
2023-03-15T23:31:38.988Z,8.50
2023-03-15T23:34:07.197Z,7.87
2023-03-15T23:36:35.230Z,15.47
2023-03-15T23:39:01.962Z,7.53
2023-03-15T23:41:29.148Z,11.63
2023-03-15T23:43:56.031Z,9.70
2023-03-15T23:46:24.312Z,8.37
2023-03-15T23:48:52.431Z,12.20
2023-03-15T23:51:20.145Z,9.27
2023-03-15T23:53:46.812Z,8.03
2023-03-15T23:56:13.563Z,7.27
2023-03-15T23:58:40.731Z,3.30
